Beacon, NY (12508)

6:25 AM EDT on September 04, 2015 (GMT -0400)
Hudson Highlands | | Change Station
CLOSE
Current Station
Personal Weather Station
Location: Cold Spring, NY
Elevation: 453 ft
Nearby Weather Stations

Elev 453 ft 41.46 °N, 73.93 °W | Updated 1 second ago

Partly Cloudy
Partly Cloudy
68.4 °F
Feels Like 68.4 °F
N
0.9
Wind Variable Wind from South
Gusts 1.0 mph

Today
High -- | Low -- °F
--% Chance of Precip.
Yesterday
High -- | Low -- °F
Precip. -- in
6:24 AM 7:24 PM
Waning Gibbous, 61% visible
Pressure 30.01 in
Visibility 10.0 miles
Clouds Scattered Clouds 4500 ft
Dew Point 64 °F
Humidity 85%
Rainfall 0.00 in
Snow Depth Not available.
UV 0 out of 12
Pollen 7.80 out of 12
Air Quality Not available.
Flu Activity Not available.
METAR KSWF 040945Z 07012KT 10SM SCT045 21/18 A3001
Pressure 30.01 in
Visibility 10.0 miles
Clouds Scattered Clouds 4500 ft
Dew Point 64 °F
Humidity 85%
Rainfall 0.00 in
Snow Depth Not available.
UV 0 out of 12
Pollen 7.80 out of 12
Air Quality Not available.
Flu Activity Not available.
METAR KSWF 040945Z 07012KT 10SM SCT045 21/18 A3001

10-Day Weather Forecast

×

Almanac

Astronomy

Sep. 04, 2015 Rise Set
Actual Time
Civil Twilight
Nautical Twilight
Astronomical Twilight
Moon
Length of Visible Light
Length of Day
Tomorrow will be .
, % of the Moon is Illuminated

Today's Extremes

State Highs State Lows

Community

WunderPhotos

Upload Photos

1,852,146 photos uploaded!

WunderBlogs® & News

Nearby

Air Quality

  Air Quality AQ Index Pollutant
Not available.

Snow Depth

Station Depth Elevation

Earthquake Activity

City Distance Mag. Time & Date
Minimum magnitude displayed is 2.5.

Coastal Water Temperatures

Place Temperature

Stations

Nearby Weather Stations

Station Location Temp. Windchill Dew Point Humidity Wind Precip. Elev Updated Type